METAR Data
IDs: Format: Raw Decoded Include TAF

Data at: 0737 UTC 03 Aug 2021

KTRM 030652Z AUTO 33011KT 10SM CLR 37/00 A2979 RMK AO2 SLP094 T03670000
KTRM 030552Z AUTO 34012KT 10SM CLR 38/02 A2979 RMK AO2 SLP091 T03830022 10461 20361 50009
KTRM 030452Z AUTO 35011KT 10SM CLR 39/05 A2979 RMK AO2 SLP092 T03890050
KTRM 030352Z AUTO 34011KT 10SM CLR 39/06 A2977 RMK AO2 SLP084 T03940061
KTRM 030252Z AUTO VRB03KT 10SM CLR 38/13 A2976 RMK AO2 SLP080 T03780128 53003
KTRM 030152Z AUTO 16006KT 10SM CLR 42/11 A2974 RMK AO2 SLP074 T04220106
KTRM 030052Z AUTO 15005KT 10SM CLR 45/07 A2974 RMK AO2 SLP074 T04500072
KTRM 022352Z AUTO VRB03KT 10SM CLR 46/05 A2975 RMK AO2 SLP079 T04610050 10467 20422 56023
KTRM 022252Z AUTO 13005KT 10SM CLR 46/06 A2977 RMK AO2 SLP084 T04610061
KTRM 022152Z AUTO 14007KT 10SM CLR 46/06 A2979 RMK AO2 SLP093 T04610061
KTRM 022052Z AUTO 13009KT 10SM CLR 46/06 A2982 RMK AO2 SLP101 T04610061 58022
KTRM 021952Z AUTO VRB03KT 10SM CLR 45/08 A2984 RMK AO2 SLP110 T04500083
KTRM 021852Z AUTO VRB04KT 10SM CLR 44/07 A2986 RMK AO2 SLP117 T04390067
KTRM 021752Z AUTO 29003KT 10SM CLR 42/06 A2988 RMK AO2 SLP123 T04220056 10422 20267 58009
KTRM 021652Z AUTO VRB04KT 10SM CLR 40/07 A2989 RMK AO2 SLP127 T04000067
KTRM 021552Z AUTO 31006KT 10SM CLR 37/06 A2991 RMK AO2 SLP131 T03720056
KTRM 021452Z AUTO 36004KT 10SM CLR 34/07 A2991 RMK AO2 SLP131 T03440067 51015
KTRM 021352Z AUTO 02006KT 10SM CLR 29/09 A2990 RMK AO2 SLP128 T02890094
KTRM 021252Z AUTO 35004KT 10SM CLR 28/07 A2988 RMK AO2 SLP122 T02830067
KTRM 021152Z AUTO 36004KT 10SM CLR 32/05 A2986 RMK AO2 SLP116 T03170050 10372 20317 53004
KTRM 021052Z AUTO 32007KT 10SM CLR 34/04 A2986 RMK AO2 SLP114 T03390044
KTRM 020952Z AUTO 31007KT 10SM CLR 33/05 A2985 RMK AO2 SLP113 T03330050
KTRM 020852Z AUTO 32007KT 10SM CLR 35/05 A2985 RMK AO2 SLP113 T03500050 51003
KTRM 020752Z AUTO 34010KT 10SM CLR 36/07 A2985 RMK AO2 SLP113 T03560067 404440283
KTRM 020652Z AUTO 33010KT 10SM CLR 37/07 A2985 RMK AO2 SLP112 T03670067
KTRM 020552Z AUTO 35011KT 10SM CLR 37/08 A2984 RMK AO2 SLP110 T03720078 10444 20367 53016
KTRM 020452Z AUTO 34013KT 10SM CLR 38/08 A2983 RMK AO2 SLP104 T03780083
KTRM 020352Z AUTO 35011G17KT 10SM CLR 38/09 A2981 RMK AO2 SLP098 T03830089
KTRM 020252Z AUTO 10SM CLR 39/11 A2980 RMK AO2 SLP094 T03890106 55000
KTRM 020152Z AUTO 13006KT 10SM CLR 41/11 A2978 RMK AO2 SLP088 T04110106
KTRM 020052Z AUTO 18004KT 10SM CLR 43/06 A2978 RMK AO2 SLP088 T04330056
KTRM 012352Z AUTO VRB05KT 10SM CLR 44/03 A2980 RMK AO2 SLP094 T04440028 10444 20400 58018
KTRM 012252Z AUTO 13008KT 10SM CLR 44/05 A2982 RMK AO2 SLP102 T04390050
KTRM 012152Z AUTO 13011KT 10SM CLR 44/08 A2984 RMK AO2 SLP108 T04390083
KTRM 012052Z AUTO 14008KT 10SM CLR 44/10 A2985 RMK AO2 SLP112 T04390100 56021
KTRM 011952Z AUTO VRB03KT 10SM CLR 42/11 A2987 RMK AO2 SLP118 T04220111